Time;durP1;ratioP1;P1;durP2;ratioP2;P2;SDS_P1;SDS_P2;PMS_P1;PMS_P2;Temp;Humidity;BMP_temperature;BMP_pressure;BME280_temperature;BME280_humidity;BME280_pressure;Samples;Min_cycle;Max_cycle;Signal;HPM_P1;HPM_P2
2021/08/28 00:01:39;;;;;;;29.85;22.55;;;;;;;;;;5156024;27;20060;-82
2021/08/28 00:04:04;;;;;;;27.90;24.95;;;;;;;;;;5157048;27;20034;-81
2021/08/28 00:06:30;;;;;;;35.40;26.00;;;;;;;;;;5157280;27;20026;-80
2021/08/28 00:08:56;;;;;;;32.88;26.63;;;;;;;;;;5157252;27;20055;-80
2021/08/28 00:11:21;;;;;;;28.40;21.25;;;;;;;;;;5156418;27;20482;-85
2021/08/28 00:13:47;;;;;;;32.15;24.60;;;;;;;;;;5156548;27;20088;-81
2021/08/28 00:16:13;;;;;;;34.22;27.33;;;;;;;;;;5156477;27;20015;-81
2021/08/28 00:18:39;;;;;;;36.65;30.52;;;;;;;;;;5156363;27;20492;-80
2021/08/28 00:21:06;;;;;;;38.65;29.05;;;;;;;;;;5156438;27;20019;-81
2021/08/28 00:23:31;;;;;;;42.78;30.45;;;;;;;;;;5156345;27;20054;-80
2021/08/28 00:25:57;;;;;;;35.47;27.00;;;;;;;;;;5156478;27;20069;-81
2021/08/28 00:28:23;;;;;;;28.58;22.55;;;;;;;;;;5154972;27;20031;-81
2021/08/28 00:30:48;;;;;;;27.73;24.23;;;;;;;;;;5156239;27;20019;-83
2021/08/28 00:33:16;;;;;;;28.23;20.45;;;;;;;;;;5156203;27;20493;-81
2021/08/28 00:35:42;;;;;;;26.73;21.77;;;;;;;;;;5156102;27;20211;-81
2021/08/28 00:38:08;;;;;;;29.15;20.88;;;;;;;;;;5156073;27;20030;-81
2021/08/28 00:40:36;;;;;;;35.28;24.77;;;;;;;;;;5156070;27;20050;-83
2021/08/28 00:43:02;;;;;;;28.55;24.08;;;;;;;;;;5156103;27;20504;-81
2021/08/28 00:45:30;;;;;;;36.45;25.77;;;;;;;;;;5155946;27;20022;-80
2021/08/28 00:47:57;;;;;;;33.15;25.48;;;;;;;;;;5155717;27;20497;-80
2021/08/28 00:50:24;;;;;;;30.08;23.63;;;;;;;;;;5155863;27;20023;-83
2021/08/28 00:52:50;;;;;;;27.98;23.80;;;;;;;;;;5154498;27;20025;-80
2021/08/28 00:55:16;;;;;;;25.58;21.95;;;;;;;;;;5155710;27;20079;-80
2021/08/28 00:57:42;;;;;;;25.85;20.85;;;;;;;;;;5155703;27;20022;-84
2021/08/28 01:00:08;;;;;;;28.92;18.27;;;;;;;;;;5155846;27;20023;-84
2021/08/28 01:02:37;;;;;;;26.48;21.98;;;;;;;;;;5155904;27;20045;-80
2021/08/28 01:05:22;;;;;;;23.92;21.30;;;;;;;;;;5155655;27;20046;-80
2021/08/28 01:07:56;;;;;;;25.60;21.10;;;;;;;;;;5141207;27;20107;-80
2021/08/28 01:10:27;;;;;;;22.90;18.30;;;;;;;;;;5155494;27;20027;-83
2021/08/28 01:13:00;;;;;;;24.02;17.55;;;;;;;;;;5155474;27;20023;-80
2021/08/28 01:15:26;;;;;;;25.33;18.80;;;;;;;;;;5155608;27;20033;-80
2021/08/28 01:17:53;;;;;;;25.02;21.27;;;;;;;;;;5155325;27;20022;-80
2021/08/28 01:20:43;;;;;;;27.80;22.33;;;;;;;;;;5155337;27;20019;-82
2021/08/28 01:23:11;;;;;;;29.85;23.52;;;;;;;;;;5155701;27;20080;-80
2021/08/28 01:25:39;;;;;;;29.00;21.15;;;;;;;;;;5155330;27;20019;-80
2021/08/28 01:28:09;;;;;;;30.15;23.80;;;;;;;;;;5155408;27;20423;-84
2021/08/28 01:30:35;;;;;;;30.85;21.05;;;;;;;;;;5155414;27;20022;-80
2021/08/28 01:33:03;;;;;;;26.73;21.40;;;;;;;;;;5155287;27;20417;-81
2021/08/28 01:35:29;;;;;;;25.83;21.52;;;;;;;;;;5155553;27;20057;-80
2021/08/28 01:37:57;;;;;;;25.48;20.73;;;;;;;;;;5155098;27;20033;-83
2021/08/28 01:40:24;;;;;;;26.55;20.10;;;;;;;;;;5153857;27;20431;-81
2021/08/28 01:42:51;;;;;;;30.73;25.70;;;;;;;;;;5155148;27;20102;-80
2021/08/28 01:45:24;;;;;;;32.00;24.27;;;;;;;;;;5155319;27;20059;-81
2021/08/28 01:47:52;;;;;;;28.50;23.27;;;;;;;;;;5155360;27;20101;-81
2021/08/28 01:50:20;;;;;;;25.75;22.98;;;;;;;;;;5154900;27;20070;-80
2021/08/28 01:52:47;;;;;;;28.48;23.17;;;;;;;;;;5155273;27;20030;-80
2021/08/28 01:55:13;;;;;;;26.08;22.38;;;;;;;;;;5154998;27;20102;-80
2021/08/28 01:57:39;;;;;;;27.60;22.05;;;;;;;;;;5154943;27;20060;-81
2021/08/28 02:00:06;;;;;;;25.58;21.48;;;;;;;;;;5155875;27;20030;-80
2021/08/28 02:02:32;;;;;;;26.60;23.48;;;;;;;;;;5154948;27;20466;-80
2021/08/28 02:04:58;;;;;;;27.52;22.80;;;;;;;;;;5155433;27;20034;-80
2021/08/28 02:07:41;;;;;;;27.40;22.80;;;;;;;;;;5153966;27;20029;-80
2021/08/28 02:10:10;;;;;;;28.90;24.02;;;;;;;;;;5154949;27;20026;-81
2021/08/28 02:12:44;;;;;;;29.38;24.48;;;;;;;;;;5154835;27;20109;-80
2021/08/28 02:15:13;;;;;;;26.58;19.02;;;;;;;;;;5154878;27;20150;-81
2021/08/28 02:18:07;;;;;;;27.60;18.70;;;;;;;;;;5154770;27;20027;-80
2021/08/28 02:20:40;;;;;;;30.33;23.23;;;;;;;;;;5153840;27;20034;-80
2021/08/28 02:23:14;;;;;;;31.80;23.40;;;;;;;;;;5154990;27;20034;-80
2021/08/28 02:25:59;;;;;;;30.67;24.20;;;;;;;;;;5156976;27;20023;-81
2021/08/28 02:28:35;;;;;;;26.45;20.05;;;;;;;;;;5158829;27;20461;-83
2021/08/28 02:31:03;;;;;;;27.38;19.88;;;;;;;;;;5158897;27;20409;-81
2021/08/28 02:33:30;;;;;;;32.17;25.65;;;;;;;;;;5158555;27;20101;-84
2021/08/28 02:35:58;;;;;;;31.13;24.20;;;;;;;;;;5158475;27;20050;-81
2021/08/28 02:38:24;;;;;;;29.60;24.67;;;;;;;;;;5158384;27;20030;-81
2021/08/28 02:40:51;;;;;;;30.52;24.02;;;;;;;;;;5158519;27;20033;-81
2021/08/28 02:43:17;;;;;;;35.20;26.45;;;;;;;;;;5158478;27;20048;-81
2021/08/28 02:45:43;;;;;;;31.45;26.55;;;;;;;;;;5158348;27;20027;-85
2021/08/28 02:48:10;;;;;;;35.95;26.15;;;;;;;;;;5158073;27;20083;-81
2021/08/28 02:50:39;;;;;;;29.85;24.77;;;;;;;;;;5158297;27;20109;-82
2021/08/28 02:53:07;;;;;;;31.35;24.90;;;;;;;;;;5158382;27;20071;-82
2021/08/28 02:55:34;;;;;;;33.95;27.17;;;;;;;;;;5158312;27;20057;-81
2021/08/28 02:58:01;;;;;;;33.45;24.08;;;;;;;;;;5157992;27;20535;-82
2021/08/28 03:00:26;;;;;;;29.38;19.98;;;;;;;;;;5158052;27;20022;-81
2021/08/28 03:02:53;;;;;;;34.50;26.45;;;;;;;;;;5156697;27;20103;-81
2021/08/28 03:05:19;;;;;;;30.30;23.52;;;;;;;;;;5158328;27;20447;-80
2021/08/28 03:07:46;;;;;;;34.60;24.38;;;;;;;;;;5158138;27;20473;-80
2021/08/28 03:10:13;;;;;;;38.88;29.90;;;;;;;;;;5157852;27;20070;-80
2021/08/28 03:12:39;;;;;;;44.65;31.23;;;;;;;;;;5157740;27;20020;-79
2021/08/28 03:15:06;;;;;;;38.55;28.17;;;;;;;;;;5158032;27;20351;-82
2021/08/28 03:17:32;;;;;;;41.47;32.10;;;;;;;;;;5157688;27;20059;-81
2021/08/28 03:19:58;;;;;;;43.47;30.10;;;;;;;;;;5157516;27;20035;-80
2021/08/28 03:22:25;;;;;;;34.47;25.58;;;;;;;;;;5157605;27;20062;-86
2021/08/28 03:24:54;;;;;;;32.92;23.52;;;;;;;;;;5157904;27;20023;-82
2021/08/28 03:27:21;;;;;;;26.85;17.52;;;;;;;;;;5157546;27;20043;-84
2021/08/28 03:29:48;;;;;;;28.45;21.30;;;;;;;;;;5156181;27;20056;-81
2021/08/28 03:32:18;;;;;;;31.60;22.63;;;;;;;;;;5157464;27;20050;-81
2021/08/28 03:34:44;;;;;;;32.08;23.98;;;;;;;;;;5157693;27;20015;-81
2021/08/28 03:37:13;;;;;;;33.42;24.40;;;;;;;;;;5157520;27;20049;-84
2021/08/28 03:39:39;;;;;;;36.80;28.52;;;;;;;;;;5157199;27;20027;-81
2021/08/28 03:42:07;;;;;;;47.97;27.30;;;;;;;;;;5157173;27;20027;-81
2021/08/28 03:44:38;;;;;;;55.72;30.77;;;;;;;;;;5157143;27;20046;-82
2021/08/28 03:47:04;;;;;;;51.00;33.22;;;;;;;;;;5157177;27;20073;-81
2021/08/28 03:49:29;;;;;;;46.20;30.90;;;;;;;;;;5156981;27;20043;-81
2021/08/28 03:51:55;;;;;;;41.35;27.35;;;;;;;;;;5157022;27;20107;-83
2021/08/28 03:54:20;;;;;;;44.92;26.45;;;;;;;;;;5157001;27;20027;-81
2021/08/28 03:56:46;;;;;;;55.15;34.35;;;;;;;;;;5156933;27;20124;-80
2021/08/28 03:59:12;;;;;;;55.85;31.98;;;;;;;;;;5156782;27;20102;-85
2021/08/28 04:01:37;;;;;;;64.85;35.28;;;;;;;;;;5156888;27;20105;-85
2021/08/28 04:04:03;;;;;;;64.65;36.38;;;;;;;;;;5156913;27;20101;-82
2021/08/28 04:06:29;;;;;;;53.83;30.17;;;;;;;;;;5156852;27;20051;-81
2021/08/28 04:08:54;;;;;;;57.35;31.13;;;;;;;;;;5156799;27;20015;-81
2021/08/28 04:11:20;;;;;;;52.47;29.92;;;;;;;;;;5156580;27;20030;-84
2021/08/28 04:13:46;;;;;;;62.65;30.02;;;;;;;;;;5155403;27;20027;-80
2021/08/28 04:16:11;;;;;;;50.88;30.67;;;;;;;;;;5156550;27;20416;-81
2021/08/28 04:18:37;;;;;;;58.50;36.30;;;;;;;;;;5156534;27;20039;-81
2021/08/28 04:21:03;;;;;;;61.40;32.90;;;;;;;;;;5156470;27;20050;-80
2021/08/28 04:23:28;;;;;;;68.70;33.70;;;;;;;;;;5156483;27;20018;-81
2021/08/28 04:25:54;;;;;;;61.42;31.17;;;;;;;;;;5156280;27;20029;-80
2021/08/28 04:28:19;;;;;;;51.80;31.65;;;;;;;;;;5156300;27;20022;-81
2021/08/28 04:30:45;;;;;;;52.75;28.42;;;;;;;;;;5156230;27;20023;-80
2021/08/28 04:33:11;;;;;;;66.07;36.80;;;;;;;;;;5156166;27;20106;-82
2021/08/28 04:35:37;;;;;;;66.38;36.20;;;;;;;;;;5156123;27;20051;-81
2021/08/28 04:38:04;;;;;;;59.75;31.35;;;;;;;;;;5156042;27;20070;-83
2021/08/28 04:40:29;;;;;;;60.35;34.55;;;;;;;;;;5156405;27;20027;-81
2021/08/28 04:42:55;;;;;;;56.20;35.78;;;;;;;;;;5156043;27;20029;-80
2021/08/28 04:45:21;;;;;;;65.85;35.55;;;;;;;;;;5156302;27;20474;-81
2021/08/28 04:47:46;;;;;;;54.72;29.08;;;;;;;;;;5155442;27;20474;-81
2021/08/28 04:50:12;;;;;;;61.72;34.95;;;;;;;;;;5155767;27;20173;-81
2021/08/28 04:52:38;;;;;;;51.72;35.65;;;;;;;;;;5155902;27;20064;-82
2021/08/28 04:55:04;;;;;;;64.72;36.78;;;;;;;;;;5155991;27;20051;-81
2021/08/28 04:57:30;;;;;;;50.65;33.53;;;;;;;;;;5155753;27;20474;-81
2021/08/28 04:59:56;;;;;;;53.10;31.13;;;;;;;;;;5155663;27;20111;-80
2021/08/28 05:02:21;;;;;;;44.40;29.27;;;;;;;;;;5155705;27;20033;-81
2021/08/28 05:04:47;;;;;;;59.97;33.60;;;;;;;;;;5155752;27;20030;-78
2021/08/28 05:07:13;;;;;;;49.42;29.48;;;;;;;;;;5155638;27;20025;-80
2021/08/28 05:09:38;;;;;;;56.38;30.92;;;;;;;;;;5155595;27;20533;-82
2021/08/28 05:12:04;;;;;;;70.93;35.10;;;;;;;;;;5155487;27;20019;-82
2021/08/28 05:14:30;;;;;;;61.95;33.00;;;;;;;;;;5155488;27;20054;-82
2021/08/28 05:16:55;;;;;;;63.53;33.40;;;;;;;;;;5155432;27;20025;-82
2021/08/28 05:19:21;;;;;;;65.72;34.75;;;;;;;;;;5155382;27;20401;-82
2021/08/28 05:21:47;;;;;;;76.10;37.53;;;;;;;;;;5154661;27;20015;-83
2021/08/28 05:24:13;;;;;;;66.78;34.53;;;;;;;;;;5135868;27;20023;-81
2021/08/28 05:26:40;;;;;;;56.67;31.20;;;;;;;;;;5155485;27;20014;-80
2021/08/28 05:29:05;;;;;;;59.08;38.25;;;;;;;;;;5155512;27;20029;-80
2021/08/28 05:31:31;;;;;;;50.50;34.90;;;;;;;;;;5155232;27;20022;-80
2021/08/28 05:33:57;;;;;;;41.78;29.25;;;;;;;;;;5155302;27;20101;-80
2021/08/28 05:36:23;;;;;;;54.78;37.13;;;;;;;;;;5155411;27;20419;-79
2021/08/28 05:38:49;;;;;;;52.45;31.70;;;;;;;;;;5153571;27;20023;-80
2021/08/28 05:41:15;;;;;;;46.55;29.58;;;;;;;;;;5155410;27;20037;-80
2021/08/28 05:43:40;;;;;;;52.10;35.72;;;;;;;;;;5153825;27;20023;-81
2021/08/28 05:46:06;;;;;;;41.63;29.52;;;;;;;;;;5155373;27;20050;-80
2021/08/28 05:48:31;;;;;;;45.03;31.23;;;;;;;;;;5154844;27;20050;-81
2021/08/28 05:50:57;;;;;;;40.78;28.70;;;;;;;;;;5155327;27;20019;-81
2021/08/28 05:53:23;;;;;;;40.03;27.08;;;;;;;;;;5155042;27;20027;-80
2021/08/28 05:55:49;;;;;;;42.65;30.73;;;;;;;;;;5142066;27;20027;-80
2021/08/28 05:58:14;;;;;;;39.15;28.65;;;;;;;;;;5134145;27;20046;-81
2021/08/28 06:00:40;;;;;;;42.47;30.58;;;;;;;;;;5135965;27;20509;-80
2021/08/28 06:03:05;;;;;;;43.80;31.25;;;;;;;;;;5138499;27;20080;-80
2021/08/28 06:05:31;;;;;;;41.88;27.67;;;;;;;;;;5142714;27;20030;-81
2021/08/28 06:07:59;;;;;;;39.28;28.40;;;;;;;;;;5158756;27;20415;-80
2021/08/28 06:10:25;;;;;;;36.35;26.23;;;;;;;;;;5137042;27;20036;-81
2021/08/28 06:12:51;;;;;;;39.00;29.98;;;;;;;;;;5135380;27;20023;-84
2021/08/28 06:15:17;;;;;;;41.90;27.17;;;;;;;;;;5136803;27;20099;-83
2021/08/28 06:17:42;;;;;;;40.88;27.75;;;;;;;;;;5138639;27;20034;-86
2021/08/28 06:20:09;;;;;;;44.10;28.77;;;;;;;;;;5149140;27;20046;-80
2021/08/28 06:22:34;;;;;;;35.80;24.95;;;;;;;;;;5151166;27;20465;-81
2021/08/28 06:25:00;;;;;;;36.80;25.50;;;;;;;;;;5158672;27;20029;-86
2021/08/28 06:27:25;;;;;;;35.15;25.80;;;;;;;;;;5158769;27;20034;-79
2021/08/28 06:29:51;;;;;;;37.15;25.05;;;;;;;;;;5158749;27;20492;-82
2021/08/28 06:32:17;;;;;;;33.15;24.45;;;;;;;;;;5158628;27;20473;-81
2021/08/28 06:34:43;;;;;;;33.60;24.33;;;;;;;;;;5158373;27;20374;-81
2021/08/28 06:37:08;;;;;;;34.58;22.23;;;;;;;;;;5158401;27;20034;-81
2021/08/28 06:39:34;;;;;;;33.80;22.98;;;;;;;;;;5157262;27;20027;-81
2021/08/28 06:42:00;;;;;;;32.83;24.13;;;;;;;;;;5156988;27;20470;-83
2021/08/28 06:44:25;;;;;;;36.88;23.58;;;;;;;;;;5157305;27;20026;-84
2021/08/28 06:46:51;;;;;;;39.75;27.38;;;;;;;;;;5156816;27;20058;-82
2021/08/28 06:49:17;;;;;;;36.00;24.75;;;;;;;;;;5157904;27;20042;-83
2021/08/28 06:51:42;;;;;;;36.78;24.30;;;;;;;;;;5158388;27;20026;-84
2021/08/28 06:54:08;;;;;;;29.80;20.95;;;;;;;;;;5157224;27;20080;-84
2021/08/28 06:56:34;;;;;;;33.60;25.27;;;;;;;;;;5158282;27;20522;-85
2021/08/28 06:58:59;;;;;;;30.70;21.23;;;;;;;;;;5157701;27;20027;-83
2021/08/28 07:01:25;;;;;;;30.83;21.35;;;;;;;;;;5157359;27;20075;-85
2021/08/28 07:03:51;;;;;;;34.22;23.67;;;;;;;;;;5157513;27;20037;-85
2021/08/28 07:06:17;;;;;;;31.38;21.70;;;;;;;;;;5158047;27;20386;-85
2021/08/28 07:08:42;;;;;;;32.58;24.05;;;;;;;;;;5157837;27;20022;-84
2021/08/28 07:11:08;;;;;;;29.63;19.98;;;;;;;;;;5157324;27;20516;-85
2021/08/28 07:13:34;;;;;;;31.67;23.20;;;;;;;;;;5157804;27;20030;-85
2021/08/28 07:16:00;;;;;;;27.35;21.08;;;;;;;;;;5157709;27;20075;-84
2021/08/28 07:18:26;;;;;;;26.23;19.60;;;;;;;;;;5157611;27;20022;-84
2021/08/28 07:20:52;;;;;;;30.55;20.45;;;;;;;;;;5158467;27;20501;-84
2021/08/28 07:23:18;;;;;;;28.45;20.48;;;;;;;;;;5157558;27;20018;-85
2021/08/28 07:25:43;;;;;;;29.35;24.92;;;;;;;;;;5157627;27;20535;-85
2021/08/28 07:28:14;;;;;;;29.33;19.83;;;;;;;;;;5157471;27;20031;-85
2021/08/28 07:30:40;;;;;;;24.65;16.77;;;;;;;;;;5156470;27;20390;-84
2021/08/28 07:33:06;;;;;;;27.25;20.27;;;;;;;;;;5155376;27;20026;-83
2021/08/28 07:35:32;;;;;;;26.25;17.75;;;;;;;;;;5157161;27;20026;-83
2021/08/28 07:37:59;;;;;;;28.80;18.63;;;;;;;;;;5157509;27;20018;-84
2021/08/28 07:40:25;;;;;;;27.70;18.27;;;;;;;;;;5156184;27;20046;-85
2021/08/28 07:42:55;;;;;;;25.88;17.35;;;;;;;;;;5157362;27;20027;-85
2021/08/28 07:45:22;;;;;;;28.02;19.83;;;;;;;;;;5157130;27;20019;-84
2021/08/28 07:47:47;;;;;;;21.35;16.63;;;;;;;;;;5157147;27;20025;-83
2021/08/28 07:50:13;;;;;;;22.73;18.20;;;;;;;;;;5156848;27;20405;-85
2021/08/28 07:52:41;;;;;;;21.95;17.52;;;;;;;;;;5157007;27;20355;-84
2021/08/28 07:55:07;;;;;;;24.63;20.48;;;;;;;;;;5156922;27;20114;-85
2021/08/28 07:57:33;;;;;;;26.38;17.05;;;;;;;;;;5156977;27;20026;-82
2021/08/28 07:59:59;;;;;;;21.88;15.55;;;;;;;;;;5156851;27;20023;-84
2021/08/28 08:02:24;;;;;;;24.40;19.25;;;;;;;;;;5156981;27;20071;-86
2021/08/28 08:04:50;;;;;;;25.15;18.88;;;;;;;;;;5155763;27;20023;-84
2021/08/28 08:07:16;;;;;;;20.35;15.70;;;;;;;;;;5155389;27;20089;-85
2021/08/28 08:09:41;;;;;;;21.13;16.70;;;;;;;;;;5155385;27;20031;-85
2021/08/28 08:12:07;;;;;;;20.83;15.77;;;;;;;;;;5156626;27;20416;-83
2021/08/28 08:14:33;;;;;;;26.80;17.05;;;;;;;;;;5156850;27;20050;-83
2021/08/28 08:16:59;;;;;;;18.55;16.08;;;;;;;;;;5155278;27;20474;-85
2021/08/28 08:19:25;;;;;;;19.30;16.70;;;;;;;;;;5156380;27;20023;-84
2021/08/28 08:21:50;;;;;;;20.73;14.98;;;;;;;;;;5156211;27;20094;-84
2021/08/28 08:24:16;;;;;;;22.00;16.38;;;;;;;;;;5154766;27;20034;-84
2021/08/28 08:26:42;;;;;;;21.50;16.55;;;;;;;;;;5156624;27;20027;-85
2021/08/28 08:29:07;;;;;;;22.90;16.13;;;;;;;;;;5155068;27;20027;-84
2021/08/28 08:31:33;;;;;;;21.88;15.75;;;;;;;;;;5156397;27;20019;-86
2021/08/28 08:33:59;;;;;;;23.73;16.88;;;;;;;;;;5156295;27;20098;-83
2021/08/28 08:36:24;;;;;;;21.95;15.68;;;;;;;;;;5156134;27;20015;-86
2021/08/28 08:38:50;;;;;;;24.15;17.85;;;;;;;;;;5156009;27;20022;-83
2021/08/28 08:41:17;;;;;;;20.77;15.30;;;;;;;;;;5154720;27;20023;-84
2021/08/28 08:43:45;;;;;;;21.75;15.27;;;;;;;;;;5155987;27;20018;-83
2021/08/28 08:46:11;;;;;;;20.83;13.48;;;;;;;;;;5155963;27;20101;-85
2021/08/28 08:48:38;;;;;;;22.30;15.80;;;;;;;;;;5155724;27;20065;-83
2021/08/28 08:51:04;;;;;;;22.40;16.05;;;;;;;;;;5154526;27;20019;-85
2021/08/28 08:53:30;;;;;;;20.42;16.27;;;;;;;;;;5155937;27;20102;-84
2021/08/28 08:55:58;;;;;;;19.48;14.73;;;;;;;;;;5156005;27;20026;-86
2021/08/28 08:58:24;;;;;;;21.48;12.88;;;;;;;;;;5153890;27;20034;-86
2021/08/28 09:00:50;;;;;;;19.88;16.90;;;;;;;;;;5154441;27;20530;-87
2021/08/28 09:03:16;;;;;;;21.30;15.20;;;;;;;;;;5155666;27;20110;-84
2021/08/28 09:05:42;;;;;;;20.80;13.63;;;;;;;;;;5155674;27;20351;-87
2021/08/28 09:08:07;;;;;;;19.73;16.55;;;;;;;;;;5152754;27;20034;-84
2021/08/28 09:10:33;;;;;;;18.83;13.43;;;;;;;;;;5134981;27;20026;-88
2021/08/28 09:13:15;;;;;;;19.98;15.57;;;;;;;;;;5150879;27;20019;-83
2021/08/28 09:15:44;;;;;;;17.10;13.38;;;;;;;;;;5155419;27;20026;-87
2021/08/28 09:18:10;;;;;;;20.15;14.52;;;;;;;;;;5155144;27;20015;-86
2021/08/28 09:20:35;;;;;;;18.23;13.10;;;;;;;;;;5155614;27;20582;-84
2021/08/28 09:23:14;;;;;;;19.90;17.45;;;;;;;;;;5155235;27;20117;-89
2021/08/28 09:25:41;;;;;;;16.80;12.40;;;;;;;;;;5155335;27;20026;-87
2021/08/28 09:28:10;;;;;;;17.17;13.40;;;;;;;;;;5154430;27;20407;-86
2021/08/28 09:30:38;;;;;;;18.48;14.65;;;;;;;;;;5150901;27;20038;-85
2021/08/28 09:33:10;;;;;;;19.80;13.85;;;;;;;;;;5155270;27;20145;-86
2021/08/28 09:35:39;;;;;;;18.35;13.82;;;;;;;;;;5155034;27;20050;-86
2021/08/28 09:38:19;;;;;;;17.80;14.00;;;;;;;;;;5156506;27;20101;-85
2021/08/28 09:41:06;;;;;;;18.30;15.10;;;;;;;;;;5155398;27;20027;-86
2021/08/28 09:43:31;;;;;;;18.02;14.43;;;;;;;;;;5154930;27;20473;-87
2021/08/28 09:45:57;;;;;;;16.88;12.50;;;;;;;;;;5154902;27;20027;-85
2021/08/28 09:48:27;;;;;;;15.15;12.43;;;;;;;;;;5154797;27;20100;-84
2021/08/28 09:50:54;;;;;;;17.38;12.40;;;;;;;;;;5154958;27;20023;-85
2021/08/28 09:53:27;;;;;;;15.63;10.90;;;;;;;;;;5155021;27;20019;-85
2021/08/28 09:56:01;;;;;;;15.13;10.70;;;;;;;;;;5156857;27;20027;-87
2021/08/28 09:58:32;;;;;;;20.58;13.27;;;;;;;;;;5157054;27;20029;-85
2021/08/28 10:01:04;;;;;;;14.30;11.10;;;;;;;;;;5153870;27;20023;-85
2021/08/28 10:03:31;;;;;;;18.00;12.50;;;;;;;;;;5153674;27;20494;-85
2021/08/28 10:05:57;;;;;;;15.02;10.43;;;;;;;;;;5154374;27;20114;-86
2021/08/28 10:08:24;;;;;;;16.33;9.20;;;;;;;;;;5155669;27;20023;-85
2021/08/28 10:10:51;;;;;;;22.38;12.20;;;;;;;;;;5154766;27;20378;-84
2021/08/28 10:13:21;;;;;;;8.93;6.32;;;;;;;;;;5154640;27;20475;-84
2021/08/28 10:15:48;;;;;;;9.80;4.43;;;;;;;;;;5154781;27;20054;-83
2021/08/28 10:18:15;;;;;;;12.93;8.27;;;;;;;;;;5154521;27;20050;-85
2021/08/28 10:20:41;;;;;;;22.63;11.90;;;;;;;;;;5154600;27;20022;-85
2021/08/28 10:23:08;;;;;;;13.52;9.48;;;;;;;;;;5154577;27;20033;-84
2021/08/28 10:25:40;;;;;;;9.80;7.47;;;;;;;;;;5154668;27;20019;-85
2021/08/28 10:28:09;;;;;;;8.95;5.95;;;;;;;;;;5154720;27;20049;-84
2021/08/28 10:30:35;;;;;;;13.93;9.38;;;;;;;;;;5154652;27;20072;-85
2021/08/28 10:33:02;;;;;;;10.27;5.65;;;;;;;;;;5153784;27;20022;-85
2021/08/28 10:35:27;;;;;;;8.30;5.75;;;;;;;;;;5154555;27;20138;-86
2021/08/28 10:37:53;;;;;;;9.18;6.95;;;;;;;;;;5154592;27;20025;-86
2021/08/28 10:40:23;;;;;;;11.43;7.07;;;;;;;;;;5154547;27;20079;-85
2021/08/28 10:42:52;;;;;;;14.48;7.53;;;;;;;;;;5154838;27;20019;-85
2021/08/28 10:45:25;;;;;;;11.77;7.55;;;;;;;;;;5154585;27;20052;-86
2021/08/28 10:47:59;;;;;;;10.80;8.55;;;;;;;;;;5158587;27;20023;-88
2021/08/28 10:50:29;;;;;;;10.50;6.72;;;;;;;;;;5158345;27;20076;-88
2021/08/28 10:52:57;;;;;;;11.02;6.90;;;;;;;;;;5157298;27;20046;-83
2021/08/28 10:55:52;;;;;;;12.75;7.65;;;;;;;;;;5156926;27;20023;-84
2021/08/28 10:58:18;;;;;;;9.73;6.32;;;;;;;;;;5136821;27;20035;-83
2021/08/28 11:00:49;;;;;;;8.45;5.88;;;;;;;;;;5137325;27;20039;-83
2021/08/28 11:03:35;;;;;;;10.13;5.97;;;;;;;;;;5137578;27;20096;-84
2021/08/28 11:06:15;;;;;;;9.38;5.15;;;;;;;;;;5137258;27;20034;-84
2021/08/28 11:08:51;;;;;;;10.57;5.30;;;;;;;;;;5137454;27;20058;-84
2021/08/28 11:11:24;;;;;;;7.32;5.15;;;;;;;;;;5137186;27;20030;-83
2021/08/28 11:13:57;;;;;;;8.30;4.93;;;;;;;;;;5137086;27;20031;-85
2021/08/28 11:16:41;;;;;;;12.18;6.13;;;;;;;;;;5137299;27;20378;-84
2021/08/28 11:19:08;;;;;;;10.52;5.88;;;;;;;;;;5136829;27;20048;-83
2021/08/28 11:21:44;;;;;;;9.73;5.15;;;;;;;;;;5136916;27;20501;-84
2021/08/28 11:24:15;;;;;;;8.75;5.47;;;;;;;;;;5137195;27;20027;-84
2021/08/28 11:26:40;;;;;;;9.10;6.03;;;;;;;;;;5136841;27;20714;-85
2021/08/28 11:29:26;;;;;;;8.82;5.07;;;;;;;;;;5135427;27;20038;-84
2021/08/28 11:32:04;;;;;;;;;;;;;;;;;;5137171;27;20102;-84
2021/08/28 11:34:30;;;;;;;;;;;;;;;;;;5135792;27;20343;-85
2021/08/28 11:37:15;;;;;;;;;;;;;;;;;;5137866;27;19911;-84
2021/08/28 11:39:44;;;;;;;;;;;;;;;;;;5125781;27;20119;-85
2021/08/28 11:42:10;;;;;;;;;;;;;;;;;;5136959;27;19912;-84
2021/08/28 11:44:37;;;;;;;;;;;;;;;;;;5136905;27;19990;-85
2021/08/28 11:47:03;;;;;;;8.07;5.25;;;;;;;;;;5135153;27;19926;-84
2021/08/28 11:49:31;;;;;;;9.38;5.85;;;;;;;;;;5136128;27;20046;-84
2021/08/28 11:52:00;;;;;;;11.75;7.10;;;;;;;;;;5136324;27;20027;-82
2021/08/28 11:54:26;;;;;;;11.00;5.93;;;;;;;;;;5136458;27;20098;-81
2021/08/28 11:57:00;;;;;;;8.57;5.78;;;;;;;;;;5137077;27;20027;-84
2021/08/28 11:59:38;;;;;;;10.27;5.75;;;;;;;;;;5136593;27;20027;-85
2021/08/28 12:02:05;;;;;;;9.38;7.10;;;;;;;;;;5134793;27;20065;-84
2021/08/28 12:04:36;;;;;;;9.48;5.40;;;;;;;;;;5136088;27;20419;-84
2021/08/28 12:07:03;;;;;;;10.45;5.95;;;;;;;;;;5136273;27;20031;-84
2021/08/28 12:09:29;;;;;;;11.70;8.35;;;;;;;;;;5135889;27;20383;-86
2021/08/28 12:11:57;;;;;;;10.15;5.38;;;;;;;;;;5135943;27;20106;-84
2021/08/28 12:14:29;;;;;;;8.68;5.00;;;;;;;;;;5151336;27;20073;-85
2021/08/28 12:16:54;;;;;;;8.13;5.45;;;;;;;;;;5156911;27;20026;-84
2021/08/28 12:19:23;;;;;;;11.00;6.15;;;;;;;;;;5156474;27;20023;-84
2021/08/28 12:22:06;;;;;;;10.77;4.97;;;;;;;;;;5156494;27;20019;-84
2021/08/28 12:24:33;;;;;;;10.63;5.38;;;;;;;;;;5156718;27;20048;-83
2021/08/28 12:27:07;;;;;;;7.95;4.75;;;;;;;;;;5156242;27;20015;-84
2021/08/28 12:29:52;;;;;;;11.52;7.70;;;;;;;;;;5156388;27;20411;-85
2021/08/28 12:32:23;;;;;;;9.70;5.28;;;;;;;;;;5156175;27;20482;-85
2021/08/28 12:34:52;;;;;;;10.98;7.20;;;;;;;;;;5156160;27;20057;-85
2021/08/28 12:37:20;;;;;;;11.30;6.05;;;;;;;;;;5156460;27;20022;-85
2021/08/28 12:39:51;;;;;;;9.07;6.25;;;;;;;;;;5156086;27;19911;-86
2021/08/28 12:42:19;;;;;;;11.05;5.45;;;;;;;;;;5154731;27;20025;-85
2021/08/28 12:44:47;;;;;;;11.15;6.32;;;;;;;;;;5155989;27;20018;-85
2021/08/28 12:47:15;;;;;;;8.10;6.18;;;;;;;;;;5156431;27;20110;-85
2021/08/28 12:49:42;;;;;;;8.40;5.15;;;;;;;;;;5155575;27;20051;-84
2021/08/28 12:52:12;;;;;;;10.30;6.82;;;;;;;;;;5156061;27;20152;-85
2021/08/28 12:54:49;;;;;;;14.27;6.68;;;;;;;;;;5154485;27;20023;-85
2021/08/28 12:57:21;;;;;;;10.27;6.78;;;;;;;;;;5156350;27;20026;-85
2021/08/28 12:59:49;;;;;;;12.55;7.07;;;;;;;;;;5155686;27;20023;-86
2021/08/28 13:02:20;;;;;;;10.20;6.65;;;;;;;;;;5155612;27;20018;-85
2021/08/28 13:04:47;;;;;;;13.27;6.57;;;;;;;;;;5155633;27;20023;-84
2021/08/28 13:07:16;;;;;;;13.75;7.82;;;;;;;;;;5155862;27;20019;-85
2021/08/28 13:09:52;;;;;;;10.93;8.27;;;;;;;;;;5155123;27;20023;-86
2021/08/28 13:12:18;;;;;;;;;;;;;;;;;;5155972;27;20022;-86
2021/08/28 13:14:52;;;;;;;17.35;8.13;;;;;;;;;;5155851;27;20381;-86
2021/08/28 13:17:27;;;;;;;12.32;8.38;;;;;;;;;;5155371;27;20493;-85
2021/08/28 13:20:09;;;;;;;11.77;7.68;;;;;;;;;;5155421;27;20041;-86
2021/08/28 13:22:39;;;;;;;12.75;7.40;;;;;;;;;;5155452;27;20019;-86
2021/08/28 13:25:05;;;;;;;11.95;6.93;;;;;;;;;;5155361;27;20038;-85
2021/08/28 13:27:31;;;;;;;9.65;7.18;;;;;;;;;;5155339;27;20025;-85
2021/08/28 13:30:20;;;;;;;14.68;7.03;;;;;;;;;;5155243;27;20027;-85
2021/08/28 13:32:59;;;;;;;9.55;6.75;;;;;;;;;;5155248;27;20068;-85
2021/08/28 13:35:26;;;;;;;10.57;6.82;;;;;;;;;;5155430;27;20046;-84
2021/08/28 13:37:52;;;;;;;12.13;6.40;;;;;;;;;;5155314;27;20221;-86
2021/08/28 13:40:18;;;;;;;12.38;6.95;;;;;;;;;;5155191;27;20027;-86
2021/08/28 13:42:45;;;;;;;11.13;8.45;;;;;;;;;;5155090;27;20134;-85
2021/08/28 13:45:11;;;;;;;12.48;7.45;;;;;;;;;;5153834;27;20022;-86
2021/08/28 13:47:37;;;;;;;11.95;7.45;;;;;;;;;;5154118;27;20030;-86
2021/08/28 13:50:03;;;;;;;10.57;8.07;;;;;;;;;;5154872;27;20406;-86
2021/08/28 13:52:29;;;;;;;12.63;6.95;;;;;;;;;;5155098;27;20458;-86
2021/08/28 13:54:54;;;;;;;11.32;9.82;;;;;;;;;;5153818;27;20034;-85
2021/08/28 13:57:20;;;;;;;11.15;7.97;;;;;;;;;;5154963;27;20524;-86
2021/08/28 13:59:46;;;;;;;13.15;7.75;;;;;;;;;;5155038;27;20029;-87
2021/08/28 14:02:11;;;;;;;13.63;9.20;;;;;;;;;;5154956;27;20434;-87
2021/08/28 14:04:37;;;;;;;11.00;7.93;;;;;;;;;;5154897;27;20030;-86
2021/08/28 14:07:03;;;;;;;12.40;6.20;;;;;;;;;;5154835;27;20022;-87
2021/08/28 14:09:28;;;;;;;13.23;9.20;;;;;;;;;;5154765;27;20029;-86
2021/08/28 14:11:54;;;;;;;12.68;9.13;;;;;;;;;;5154908;27;20026;-87
2021/08/28 14:14:19;;;;;;;11.35;7.63;;;;;;;;;;5154814;27;20484;-88
2021/08/28 14:16:45;;;;;;;11.38;6.95;;;;;;;;;;5154896;27;20023;-86
2021/08/28 14:19:11;;;;;;;11.00;7.50;;;;;;;;;;5155041;27;20050;-86
2021/08/28 14:21:36;;;;;;;12.55;9.73;;;;;;;;;;5156869;27;20083;-88
2021/08/28 14:24:02;;;;;;;11.45;7.28;;;;;;;;;;5158795;27;20083;-88
2021/08/28 14:26:28;;;;;;;16.00;10.15;;;;;;;;;;5158720;27;20103;-88
2021/08/28 14:28:57;;;;;;;10.93;9.02;;;;;;;;;;5157706;27;20035;-87